x

West Gulf - 207 Nm East Of Brownsville, Tx (42002) Wave Buoy

7:50am - Mon 21st Aug 2017 All times are CDT. -5 hours from GMT.

  • Sig Wave height 2.6ft
  • Swell Direction
  • Peak Period 5s
  • Average Period 4s
  • Wind
    11mph, 13mph gusts
  • Sea Temp 88°f
  • Air Temp 85°f
  • Sea Pressure 1016.4mb
  • West Gulf - 207 Nm East Of Brownsville, Tx
  • West Gulf - 207 Nm East Of Brownsville, Tx

More Historic Weather Station data

Upgrade to MSW Pro to gain access to the past 30 days of data for over 8000 Wavebouys and Weather Stations around the globe.

Join

Comparision Forecast

View Surf forecast
   
Mon 08/21 7:50am 2.5ft 5s 4s 11 13 mph 1016.4mb 88f 85f
6:50am 2.5ft 5s 4s 11 13 mph 1016.1mb 88f 85f
5:50am 2.5ft 4s 4s 11 13 mph 1016mb 88f 85f
4:50am 2.5ft 4s 4s 13 16 mph 1015.6mb 88f 86f
3:50am 2.5ft 4s 4s 13 16 mph 1015.8mb 88f 86f
2:50am 2.5ft 4s 4s 16 18 mph 1015.7mb 88f 86f
1:50am 2ft 4s 3s 16 20 mph 1015.9mb 88f 85f
12:50am 1.6ft 3s 3s 9 13 mph 1016.2mb 88f 84f
Sun 08/20 11:50pm 1.6ft 4s 3s 16 18 mph 1016.2mb 88f 85f
10:50pm 1.6ft 4s 3s 13 16 mph 1016.2mb 88f 86f
9:50pm 1.6ft 4s 3s 11 13 mph 1015.8mb 88f 86f
7:50pm 1.6ft 3s 3s 11 16 mph 1014.8mb 88f 86f
5:50pm 1.3ft 3s 3s 11 13 mph 1014.4mb 88f 86f
4:50pm 1.6ft 4s 3s 11 13 mph 1014.4mb 88f 86f
3:50pm 1.3ft 2s 3s 4 9 mph 1014.7mb 88f 80f
2:50pm 1ft 4s 3s 13 16 mph 1015.1mb 89f 87f
1:50pm 1ft 4s 4s 9 11 mph 1015.7mb 89f 86f
12:50pm 1ft 5s 4s 9 13 mph 1016.1mb 89f 86f
11:50am 1ft 4s 4s 7 9 mph 1016.4mb 89f 86f
10:50am 1ft 5s 4s 7 9 mph 1016.4mb 88f 86f
9:50am 1ft 4s 4s 7 7 mph 1015.9mb 88f 86f
8:50am 1.3ft 4s 4s 4 7 mph 1015.5mb 88f 87f
7:50am 1.3ft 4s 4s 4 4 mph 1015.1mb 88f 87f
6:50am 1.3ft 4s 4s 4 7 mph 1014.7mb 88f 86f
5:50am 1ft 4s 4s 7 7 mph 1014.5mb 88f 86f
4:50am 1.3ft 4s 4s 7 9 mph 1014.5mb 88f 86f
3:50am 1.3ft 4s 4s 4 7 mph 1014.5mb 88f 86f
2:50am 1.3ft 4s 4s 7 9 mph 1014.6mb 88f 86f
1:50am 1.3ft 4s 4s 9 11 mph 1015.1mb 88f 86f
12:50am 1.3ft 4s 3s 9 11 mph 1015.3mb 88f 86f
Sat 08/19 11:50pm 1.3ft 4s 3s 9 11 mph 1015.5mb 88f 87f
10:50pm 1.3ft 4s 3s 11 13 mph 1015.8mb 88f 86f
9:50pm 1.3ft 3s 3s 11 13 mph 1015.7mb 88f 86f
8:50pm 1.3ft 4s 3s 13 16 mph 1014.9mb 88f 86f
7:50pm 1.3ft 4s 4s 13 18 mph 1014.2mb 88f 87f
6:50pm 1.3ft 5s 4s 9 11 mph 1013.9mb 89f 86f
5:50pm 1.3ft 5s 4s 11 13 mph 1014mb 89f 86f
4:50pm 1.3ft 5s 4s 11 18 mph 1014.4mb 89f 86f
3:50pm 1.3ft 5s 4s 7 9 mph 1014.7mb 89f 86f
2:50pm 1.3ft 5s 4s 7 9 mph 1015.3mb 89f 86f
1:50pm 1.6ft 5s 4s 7 11 mph 1015.9mb 89f 84f
12:50pm 1.6ft 5s 4s 4 7 mph 1016.5mb 89f 86f
11:50am 1.6ft 5s 4s 7 7 mph 1016.6mb 89f 86f
10:50am 1.6ft 5s 4s 4 7 mph 1016.3mb 88f 86f
9:50am 1.6ft 5s 4s 4 7 mph 1016.3mb 88f 87f
8:50am 1.6ft 5s 4s 2 4 mph 1016mb 88f 87f
7:50am 2ft 5s 4s 2 2 mph 1015.8mb 88f 86f
6:50am 2ft 5s 4s 4 4 mph 1015.2mb 88f 85f
5:50am 2ft 5s 4s 7 9 mph 1014.8mb 88f 86f
4:50am 2ft 4s 4s 7 9 mph 1014.8mb 88f 86f
3:50am 2ft 4s 4s 9 11 mph 1015.3mb 88f 86f
2:50am 2ft 4s 4s 11 13 mph 1015.8mb 88f 86f
1:50am 2.5ft 5s 4s 11 13 mph 1016.4mb 88f 86f
12:50am 2ft 5s 4s 13 16 mph 1016.6mb 88f 86f
Fri 08/18 11:50pm 2ft 5s 4s 13 16 mph 1016.5mb 88f 86f
10:50pm 2ft 5s 4s 13 16 mph 1016.5mb 88f 87f
9:50pm 2ft 5s 4s 13 16 mph 1016mb 88f 87f
8:50pm 1.6ft 5s 4s 13 13 mph 1016.1mb 88f 87f
7:50pm 2ft 5s 4s 11 13 mph 1015.8mb 89f 87f
6:50pm 2ft 5s 4s 11 13 mph 1015.4mb 89f 87f
5:50pm 1.6ft 5s 5s 7 9 mph 1015.6mb 89f 87f
4:50pm 2ft 6s 5s 4 4 mph 1015.7mb 89f 87f
3:50pm 2ft 6s 5s 7 9 mph 1016.1mb 89f 84f
2:50pm 2ft 6s 4s 2 4 mph 1016.4mb 90f 87f
1:50pm 2.5ft 6s 5s 2 4 mph 1017mb 90f 87f
12:50pm 2.5ft 5s 5s 2 4 mph 1017.3mb 89f 87f
11:50am 2.5ft 6s 5s 4 7 mph 1017.4mb 88f 87f
10:50am 2.5ft 6s 5s 4 7 mph 1017mb 88f 87f
9:50am 3ft 6s 5s 7 9 mph 1017mb 87f 86f
8:50am 3.5ft 5s 5s 7 9 mph 1016.5mb 87f 86f
7:50am 3ft 6s 4s 7 9 mph 1016.3mb 87f 87f
6:50am 3.5ft 6s 5s 9 11 mph 1015.8mb 87f 86f
5:50am 3.5ft 6s 5s 11 13 mph 1015.6mb 87f 86f
4:50am 3.5ft 6s 5s 13 16 mph 1015.6mb 87f 86f
3:50am 3.5ft 6s 4s 13 16 mph 1015.8mb 87f 86f
2:50am 3.5ft 5s 4s 16 18 mph 1016.3mb 87f 86f
1:50am 3.5ft 6s 4s 16 18 mph 1016.9mb 87f 86f
12:50am 3.5ft 6s 5s 16 18 mph 1016.9mb 88f 86f
Thu 08/17 11:50pm 3.5ft 6s 5s 16 18 mph 1017.5mb 88f 87f
10:50pm 3ft 6s 5s 16 18 mph 1017.1mb 88f 86f
9:50pm 3ft 7s 5s 13 16 mph 1016.4mb 88f 86f
8:50pm 3ft 7s 5s 13 16 mph 1015.7mb 88f 87f
7:50pm 3.5ft 6s 5s 11 13 mph 1015.4mb 88f 87f
6:50pm 3ft 6s 5s 9 11 mph 1015.5mb 88f 87f
5:50pm 3ft 6s 5s 9 11 mph 1016.1mb 88f 87f
4:50pm 3ft 6s 5s 7 9 mph 1016.6mb 88f 87f
3:50pm 3ft 6s 5s 11 13 mph 1016.7mb 88f 87f